sensor_id;sensor_type;location;lat;lon;timestamp;temperature;humidity
42743;DHT22;28397;44.552;-0.848;2022-10-17T00:01:02;20.10;99.90
42743;DHT22;28397;44.552;-0.848;2022-10-17T00:03:27;20.10;99.90
42743;DHT22;28397;44.552;-0.848;2022-10-17T00:05:53;20.10;99.90
42743;DHT22;28397;44.552;-0.848;2022-10-17T00:08:19;20.10;99.90
42743;DHT22;28397;44.552;-0.848;2022-10-17T00:10:45;20.10;99.90
42743;DHT22;28397;44.552;-0.848;2022-10-17T00:13:10;20.10;99.90
42743;DHT22;28397;44.552;-0.848;2022-10-17T00:15:36;20.10;99.90
42743;DHT22;28397;44.552;-0.848;2022-10-17T00:18:02;20.10;99.90
42743;DHT22;28397;44.552;-0.848;2022-10-17T00:20:28;20.00;99.90
42743;DHT22;28397;44.552;-0.848;2022-10-17T00:22:55;20.10;99.90
42743;DHT22;28397;44.552;-0.848;2022-10-17T00:25:20;20.00;99.90
42743;DHT22;28397;44.552;-0.848;2022-10-17T00:27:46;19.90;99.90
42743;DHT22;28397;44.552;-0.848;2022-10-17T00:30:13;19.90;99.90
42743;DHT22;28397;44.552;-0.848;2022-10-17T00:32:39;19.80;99.90
42743;DHT22;28397;44.552;-0.848;2022-10-17T00:35:05;19.80;99.90
42743;DHT22;28397;44.552;-0.848;2022-10-17T00:37:32;19.70;99.90
42743;DHT22;28397;44.552;-0.848;2022-10-17T00:39:57;19.60;99.90
42743;DHT22;28397;44.552;-0.848;2022-10-17T00:42:23;19.60;99.90
42743;DHT22;28397;44.552;-0.848;2022-10-17T00:47:16;19.40;99.90
42743;DHT22;28397;44.552;-0.848;2022-10-17T00:49:42;19.30;99.90
42743;DHT22;28397;44.552;-0.848;2022-10-17T00:52:09;19.40;99.90
42743;DHT22;28397;44.552;-0.848;2022-10-17T00:54:36;19.30;99.90
42743;DHT22;28397;44.552;-0.848;2022-10-17T00:57:03;19.20;99.90
42743;DHT22;28397;44.552;-0.848;2022-10-17T00:59:29;19.20;99.90
42743;DHT22;28397;44.552;-0.848;2022-10-17T01:02:05;19.30;99.90
42743;DHT22;28397;44.552;-0.848;2022-10-17T01:04:30;19.20;99.90
42743;DHT22;28397;44.552;-0.848;2022-10-17T01:06:56;19.10;99.90
42743;DHT22;28397;44.552;-0.848;2022-10-17T01:09:22;19.00;99.90
42743;DHT22;28397;44.552;-0.848;2022-10-17T01:11:52;18.90;99.90
42743;DHT22;28397;44.552;-0.848;2022-10-17T01:17:03;19.10;99.90
42743;DHT22;28397;44.552;-0.848;2022-10-17T01:22:16;18.80;99.90
42743;DHT22;28397;44.552;-0.848;2022-10-17T01:25:00;18.90;99.90
42743;DHT22;28397;44.552;-0.848;2022-10-17T01:32:49;18.60;99.90
42743;DHT22;28397;44.552;-0.848;2022-10-17T01:37:45;18.50;99.90
42743;DHT22;28397;44.552;-0.848;2022-10-17T01:40:19;18.50;99.90
42743;DHT22;28397;44.552;-0.848;2022-10-17T01:45:16;18.40;99.90
42743;DHT22;28397;44.552;-0.848;2022-10-17T01:47:44;18.40;99.90
42743;DHT22;28397;44.552;-0.848;2022-10-17T01:50:13;18.50;99.90
42743;DHT22;28397;44.552;-0.848;2022-10-17T01:52:50;18.60;99.90
42743;DHT22;28397;44.552;-0.848;2022-10-17T01:55:18;18.50;99.90
42743;DHT22;28397;44.552;-0.848;2022-10-17T01:57:47;18.40;99.90
42743;DHT22;28397;44.552;-0.848;2022-10-17T02:00:15;18.40;99.90
42743;DHT22;28397;44.552;-0.848;2022-10-17T02:02:42;18.50;99.90
42743;DHT22;28397;44.552;-0.848;2022-10-17T02:05:09;18.50;99.90
42743;DHT22;28397;44.552;-0.848;2022-10-17T02:07:35;18.50;99.90
42743;DHT22;28397;44.552;-0.848;2022-10-17T02:10:01;18.40;99.90
42743;DHT22;28397;44.552;-0.848;2022-10-17T02:18:24;18.40;99.90
42743;DHT22;28397;44.552;-0.848;2022-10-17T02:20:56;18.30;99.90
42743;DHT22;28397;44.552;-0.848;2022-10-17T02:25:55;18.50;99.90
42743;DHT22;28397;44.552;-0.848;2022-10-17T02:28:32;18.60;99.90
42743;DHT22;28397;44.552;-0.848;2022-10-17T02:31:13;18.50;99.90
42743;DHT22;28397;44.552;-0.848;2022-10-17T02:33:53;18.40;99.90
42743;DHT22;28397;44.552;-0.848;2022-10-17T02:36:21;18.60;99.90
42743;DHT22;28397;44.552;-0.848;2022-10-17T02:38:48;18.70;99.90
42743;DHT22;28397;44.552;-0.848;2022-10-17T02:41:15;18.70;99.90
42743;DHT22;28397;44.552;-0.848;2022-10-17T02:43:42;18.60;99.90
42743;DHT22;28397;44.552;-0.848;2022-10-17T02:46:10;18.70;99.90
42743;DHT22;28397;44.552;-0.848;2022-10-17T02:48:37;18.70;99.90
42743;DHT22;28397;44.552;-0.848;2022-10-17T02:53:38;18.50;99.90
42743;DHT22;28397;44.552;-0.848;2022-10-17T02:56:10;18.60;99.90
42743;DHT22;28397;44.552;-0.848;2022-10-17T02:58:37;18.60;99.90
42743;DHT22;28397;44.552;-0.848;2022-10-17T03:01:03;18.50;99.90
42743;DHT22;28397;44.552;-0.848;2022-10-17T03:03:30;18.50;99.90
42743;DHT22;28397;44.552;-0.848;2022-10-17T03:05:56;18.50;99.90
42743;DHT22;28397;44.552;-0.848;2022-10-17T03:08:22;18.50;99.90
42743;DHT22;28397;44.552;-0.848;2022-10-17T03:10:48;18.40;99.90
42743;DHT22;28397;44.552;-0.848;2022-10-17T03:13:14;18.40;99.90
42743;DHT22;28397;44.552;-0.848;2022-10-17T03:15:39;18.40;99.90
42743;DHT22;28397;44.552;-0.848;2022-10-17T03:18:05;18.40;99.90
42743;DHT22;28397;44.552;-0.848;2022-10-17T03:20:31;18.40;99.90
42743;DHT22;28397;44.552;-0.848;2022-10-17T03:22:56;18.40;99.90
42743;DHT22;28397;44.552;-0.848;2022-10-17T03:25:22;18.50;99.90
42743;DHT22;28397;44.552;-0.848;2022-10-17T03:27:47;18.50;99.90
42743;DHT22;28397;44.552;-0.848;2022-10-17T03:30:13;18.40;99.90
42743;DHT22;28397;44.552;-0.848;2022-10-17T03:32:38;18.30;99.90
42743;DHT22;28397;44.552;-0.848;2022-10-17T03:35:04;18.20;99.90
42743;DHT22;28397;44.552;-0.848;2022-10-17T03:37:30;18.20;99.90
42743;DHT22;28397;44.552;-0.848;2022-10-17T03:39:55;18.20;99.90
42743;DHT22;28397;44.552;-0.848;2022-10-17T03:42:21;18.20;99.90
42743;DHT22;28397;44.552;-0.848;2022-10-17T03:44:46;18.20;99.90
42743;DHT22;28397;44.552;-0.848;2022-10-17T03:47:12;18.20;99.90
42743;DHT22;28397;44.552;-0.848;2022-10-17T03:49:37;18.20;99.90
42743;DHT22;28397;44.552;-0.848;2022-10-17T03:52:03;18.30;99.90
42743;DHT22;28397;44.552;-0.848;2022-10-17T03:54:28;18.30;99.90
42743;DHT22;28397;44.552;-0.848;2022-10-17T03:56:54;18.20;99.90
42743;DHT22;28397;44.552;-0.848;2022-10-17T03:59:19;18.20;99.90
42743;DHT22;28397;44.552;-0.848;2022-10-17T04:01:45;18.20;99.90
42743;DHT22;28397;44.552;-0.848;2022-10-17T04:04:11;18.20;99.90
42743;DHT22;28397;44.552;-0.848;2022-10-17T04:06:36;18.20;99.90
42743;DHT22;28397;44.552;-0.848;2022-10-17T04:09:03;18.20;99.90
42743;DHT22;28397;44.552;-0.848;2022-10-17T04:11:28;18.10;99.90
42743;DHT22;28397;44.552;-0.848;2022-10-17T04:13:55;18.10;99.90
42743;DHT22;28397;44.552;-0.848;2022-10-17T04:16:21;18.10;99.90
42743;DHT22;28397;44.552;-0.848;2022-10-17T04:18:51;18.10;99.90
42743;DHT22;28397;44.552;-0.848;2022-10-17T04:21:16;18.20;99.90
42743;DHT22;28397;44.552;-0.848;2022-10-17T04:23:43;18.20;99.90
42743;DHT22;28397;44.552;-0.848;2022-10-17T04:26:09;18.20;99.90
42743;DHT22;28397;44.552;-0.848;2022-10-17T04:28:34;18.20;99.90
42743;DHT22;28397;44.552;-0.848;2022-10-17T04:31:04;18.10;99.90
42743;DHT22;28397;44.552;-0.848;2022-10-17T04:33:30;18.10;99.90
42743;DHT22;28397;44.552;-0.848;2022-10-17T04:36:03;18.10;99.90
42743;DHT22;28397;44.552;-0.848;2022-10-17T04:38:29;18.10;99.90
42743;DHT22;28397;44.552;-0.848;2022-10-17T04:40:58;18.10;99.90
42743;DHT22;28397;44.552;-0.848;2022-10-17T04:43:31;18.00;99.90
42743;DHT22;28397;44.552;-0.848;2022-10-17T04:46:00;18.00;99.90
42743;DHT22;28397;44.552;-0.848;2022-10-17T04:48:26;18.00;99.90
42743;DHT22;28397;44.552;-0.848;2022-10-17T04:50:56;17.90;99.90
42743;DHT22;28397;44.552;-0.848;2022-10-17T04:53:22;17.90;99.90
42743;DHT22;28397;44.552;-0.848;2022-10-17T04:55:48;17.80;99.90
42743;DHT22;28397;44.552;-0.848;2022-10-17T04:58:13;17.80;99.90
42743;DHT22;28397;44.552;-0.848;2022-10-17T05:00:39;17.90;99.90
42743;DHT22;28397;44.552;-0.848;2022-10-17T05:03:05;17.90;99.90
42743;DHT22;28397;44.552;-0.848;2022-10-17T05:05:30;17.80;99.90
42743;DHT22;28397;44.552;-0.848;2022-10-17T05:07:56;17.80;99.90
42743;DHT22;28397;44.552;-0.848;2022-10-17T05:10:21;17.80;99.90
42743;DHT22;28397;44.552;-0.848;2022-10-17T05:12:47;17.80;99.90
42743;DHT22;28397;44.552;-0.848;2022-10-17T05:15:13;17.70;99.90
42743;DHT22;28397;44.552;-0.848;2022-10-17T05:17:38;17.70;99.90
42743;DHT22;28397;44.552;-0.848;2022-10-17T05:20:04;17.70;99.90
42743;DHT22;28397;44.552;-0.848;2022-10-17T05:22:30;17.70;99.90
42743;DHT22;28397;44.552;-0.848;2022-10-17T05:24:55;17.70;99.90
42743;DHT22;28397;44.552;-0.848;2022-10-17T05:27:21;17.80;99.90
42743;DHT22;28397;44.552;-0.848;2022-10-17T05:29:47;17.80;99.90
42743;DHT22;28397;44.552;-0.848;2022-10-17T05:32:13;17.80;99.90
42743;DHT22;28397;44.552;-0.848;2022-10-17T05:34:39;17.90;99.90
42743;DHT22;28397;44.552;-0.848;2022-10-17T05:37:05;17.90;99.90
42743;DHT22;28397;44.552;-0.848;2022-10-17T05:39:30;17.80;99.90
42743;DHT22;28397;44.552;-0.848;2022-10-17T05:41:56;17.80;99.90
42743;DHT22;28397;44.552;-0.848;2022-10-17T05:44:21;17.90;99.90
42743;DHT22;28397;44.552;-0.848;2022-10-17T05:46:47;17.80;99.90
42743;DHT22;28397;44.552;-0.848;2022-10-17T05:49:13;17.80;99.90
42743;DHT22;28397;44.552;-0.848;2022-10-17T05:51:39;17.80;99.90
42743;DHT22;28397;44.552;-0.848;2022-10-17T05:54:05;17.90;99.90
42743;DHT22;28397;44.552;-0.848;2022-10-17T05:56:31;17.90;99.90
42743;DHT22;28397;44.552;-0.848;2022-10-17T05:58:57;17.80;99.90
42743;DHT22;28397;44.552;-0.848;2022-10-17T06:01:22;17.70;99.90
42743;DHT22;28397;44.552;-0.848;2022-10-17T06:03:48;17.70;99.90
42743;DHT22;28397;44.552;-0.848;2022-10-17T06:06:14;17.80;99.90
42743;DHT22;28397;44.552;-0.848;2022-10-17T06:08:40;17.70;99.90
42743;DHT22;28397;44.552;-0.848;2022-10-17T06:11:06;17.70;99.90
42743;DHT22;28397;44.552;-0.848;2022-10-17T06:13:32;17.80;99.90
42743;DHT22;28397;44.552;-0.848;2022-10-17T06:15:57;17.80;99.90
42743;DHT22;28397;44.552;-0.848;2022-10-17T06:18:23;17.70;99.90
42743;DHT22;28397;44.552;-0.848;2022-10-17T06:20:48;17.60;99.90
42743;DHT22;28397;44.552;-0.848;2022-10-17T06:23:14;17.60;99.90
42743;DHT22;28397;44.552;-0.848;2022-10-17T06:25:40;17.50;99.90
42743;DHT22;28397;44.552;-0.848;2022-10-17T06:28:05;17.50;99.90
42743;DHT22;28397;44.552;-0.848;2022-10-17T06:30:31;17.50;99.90
42743;DHT22;28397;44.552;-0.848;2022-10-17T06:32:56;17.50;99.90
42743;DHT22;28397;44.552;-0.848;2022-10-17T06:35:22;17.50;99.90
42743;DHT22;28397;44.552;-0.848;2022-10-17T06:37:48;17.40;99.90
42743;DHT22;28397;44.552;-0.848;2022-10-17T06:40:13;17.50;99.90
42743;DHT22;28397;44.552;-0.848;2022-10-17T06:42:41;17.50;99.90
42743;DHT22;28397;44.552;-0.848;2022-10-17T06:45:07;17.40;99.90
42743;DHT22;28397;44.552;-0.848;2022-10-17T06:47:33;17.50;99.90
42743;DHT22;28397;44.552;-0.848;2022-10-17T06:49:58;17.40;99.90
42743;DHT22;28397;44.552;-0.848;2022-10-17T06:52:24;17.40;99.90
42743;DHT22;28397;44.552;-0.848;2022-10-17T06:54:49;17.40;99.90
42743;DHT22;28397;44.552;-0.848;2022-10-17T06:57:16;17.40;99.90
42743;DHT22;28397;44.552;-0.848;2022-10-17T06:59:42;17.50;99.90
42743;DHT22;28397;44.552;-0.848;2022-10-17T07:02:08;17.50;99.90
42743;DHT22;28397;44.552;-0.848;2022-10-17T07:04:34;17.50;99.90
42743;DHT22;28397;44.552;-0.848;2022-10-17T07:06:59;17.40;99.90
42743;DHT22;28397;44.552;-0.848;2022-10-17T07:09:27;17.40;99.90
42743;DHT22;28397;44.552;-0.848;2022-10-17T07:11:53;17.50;99.90
42743;DHT22;28397;44.552;-0.848;2022-10-17T07:14:18;17.50;99.90
42743;DHT22;28397;44.552;-0.848;2022-10-17T07:16:44;17.50;99.90
42743;DHT22;28397;44.552;-0.848;2022-10-17T07:19:09;17.50;99.90
42743;DHT22;28397;44.552;-0.848;2022-10-17T07:21:35;17.50;99.90
42743;DHT22;28397;44.552;-0.848;2022-10-17T07:24:01;17.50;99.90
42743;DHT22;28397;44.552;-0.848;2022-10-17T07:26:26;17.50;99.90
42743;DHT22;28397;44.552;-0.848;2022-10-17T07:28:52;17.50;99.90
42743;DHT22;28397;44.552;-0.848;2022-10-17T07:31:19;17.40;99.90
42743;DHT22;28397;44.552;-0.848;2022-10-17T07:33:45;17.50;99.90
42743;DHT22;28397;44.552;-0.848;2022-10-17T07:36:13;17.50;99.90
42743;DHT22;28397;44.552;-0.848;2022-10-17T07:38:39;17.40;99.90
42743;DHT22;28397;44.552;-0.848;2022-10-17T07:41:06;17.40;99.90
42743;DHT22;28397;44.552;-0.848;2022-10-17T07:43:32;17.40;99.90
42743;DHT22;28397;44.552;-0.848;2022-10-17T07:45:59;17.30;99.90
42743;DHT22;28397;44.552;-0.848;2022-10-17T07:48:25;17.30;99.90
42743;DHT22;28397;44.552;-0.848;2022-10-17T07:50:50;17.30;99.90
42743;DHT22;28397;44.552;-0.848;2022-10-17T07:53:16;17.30;99.90
42743;DHT22;28397;44.552;-0.848;2022-10-17T07:55:41;17.40;99.90
42743;DHT22;28397;44.552;-0.848;2022-10-17T07:58:07;17.40;99.90
42743;DHT22;28397;44.552;-0.848;2022-10-17T08:00:33;17.40;99.90
42743;DHT22;28397;44.552;-0.848;2022-10-17T08:02:59;17.40;99.90
42743;DHT22;28397;44.552;-0.848;2022-10-17T08:05:24;17.40;99.90
42743;DHT22;28397;44.552;-0.848;2022-10-17T08:07:50;17.40;99.90
42743;DHT22;28397;44.552;-0.848;2022-10-17T08:10:16;17.40;99.90
42743;DHT22;28397;44.552;-0.848;2022-10-17T08:12:41;17.40;99.90
42743;DHT22;28397;44.552;-0.848;2022-10-17T08:15:07;17.40;99.90
42743;DHT22;28397;44.552;-0.848;2022-10-17T08:17:34;17.50;99.90
42743;DHT22;28397;44.552;-0.848;2022-10-17T08:19:59;17.50;99.90
42743;DHT22;28397;44.552;-0.848;2022-10-17T08:22:25;17.60;99.90
42743;DHT22;28397;44.552;-0.848;2022-10-17T08:24:50;17.60;99.90
42743;DHT22;28397;44.552;-0.848;2022-10-17T08:27:16;17.70;99.90
42743;DHT22;28397;44.552;-0.848;2022-10-17T08:29:48;17.70;99.90
42743;DHT22;28397;44.552;-0.848;2022-10-17T08:32:17;17.70;99.90
42743;DHT22;28397;44.552;-0.848;2022-10-17T08:34:43;17.80;99.90
42743;DHT22;28397;44.552;-0.848;2022-10-17T08:37:08;17.80;99.90
42743;DHT22;28397;44.552;-0.848;2022-10-17T08:39:34;18.00;99.90
42743;DHT22;28397;44.552;-0.848;2022-10-17T08:44:59;18.80;99.90
42743;DHT22;28397;44.552;-0.848;2022-10-17T08:47:28;18.60;99.90
42743;DHT22;28397;44.552;-0.848;2022-10-17T08:49:55;18.60;99.90
42743;DHT22;28397;44.552;-0.848;2022-10-17T08:54:57;18.50;99.90
42743;DHT22;28397;44.552;-0.848;2022-10-17T08:57:23;18.50;99.90
42743;DHT22;28397;44.552;-0.848;2022-10-17T08:59:51;18.40;99.90
42743;DHT22;28397;44.552;-0.848;2022-10-17T09:02:27;18.40;99.90
42743;DHT22;28397;44.552;-0.848;2022-10-17T09:05:07;18.40;99.90
42743;DHT22;28397;44.552;-0.848;2022-10-17T09:08:00;18.60;99.90
42743;DHT22;28397;44.552;-0.848;2022-10-17T09:18:23;19.00;99.90
42743;DHT22;28397;44.552;-0.848;2022-10-17T09:23:51;19.30;99.90
42743;DHT22;28397;44.552;-0.848;2022-10-17T09:26:18;19.50;99.90
42743;DHT22;28397;44.552;-0.848;2022-10-17T09:28:45;19.80;99.90
42743;DHT22;28397;44.552;-0.848;2022-10-17T09:33:41;20.20;99.90
42743;DHT22;28397;44.552;-0.848;2022-10-17T09:36:10;20.30;99.90
42743;DHT22;28397;44.552;-0.848;2022-10-17T09:38:47;20.30;99.90
42743;DHT22;28397;44.552;-0.848;2022-10-17T09:41:20;20.60;99.90
42743;DHT22;28397;44.552;-0.848;2022-10-17T09:43:47;20.90;99.90
42743;DHT22;28397;44.552;-0.848;2022-10-17T09:46:16;20.90;99.90
42743;DHT22;28397;44.552;-0.848;2022-10-17T09:48:45;21.10;99.90
42743;DHT22;28397;44.552;-0.848;2022-10-17T09:51:13;21.20;99.90
42743;DHT22;28397;44.552;-0.848;2022-10-17T09:53:39;21.40;99.90
42743;DHT22;28397;44.552;-0.848;2022-10-17T09:56:13;21.20;99.90
42743;DHT22;28397;44.552;-0.848;2022-10-17T10:03:40;21.60;99.90
42743;DHT22;28397;44.552;-0.848;2022-10-17T10:06:12;21.50;99.90
42743;DHT22;28397;44.552;-0.848;2022-10-17T10:08:47;21.50;99.90
42743;DHT22;28397;44.552;-0.848;2022-10-17T10:11:16;21.60;99.90
42743;DHT22;28397;44.552;-0.848;2022-10-17T10:13:42;21.60;99.90
42743;DHT22;28397;44.552;-0.848;2022-10-17T10:16:16;21.60;99.90
42743;DHT22;28397;44.552;-0.848;2022-10-17T10:18:42;21.70;99.90
42743;DHT22;28397;44.552;-0.848;2022-10-17T10:23:37;21.90;99.90
42743;DHT22;28397;44.552;-0.848;2022-10-17T10:28:56;21.90;99.90
42743;DHT22;28397;44.552;-0.848;2022-10-17T10:31:33;21.90;99.90
42743;DHT22;28397;44.552;-0.848;2022-10-17T10:34:00;21.90;99.90
42743;DHT22;28397;44.552;-0.848;2022-10-17T10:36:43;21.90;99.90
42743;DHT22;28397;44.552;-0.848;2022-10-17T10:39:13;21.90;99.90
42743;DHT22;28397;44.552;-0.848;2022-10-17T10:41:46;22.10;99.90
42743;DHT22;28397;44.552;-0.848;2022-10-17T10:44:12;22.20;99.90
42743;DHT22;28397;44.552;-0.848;2022-10-17T10:46:39;22.20;99.90
42743;DHT22;28397;44.552;-0.848;2022-10-17T10:49:07;22.30;99.90
42743;DHT22;28397;44.552;-0.848;2022-10-17T10:51:50;22.50;99.90
42743;DHT22;28397;44.552;-0.848;2022-10-17T10:54:38;22.60;99.90
42743;DHT22;28397;44.552;-0.848;2022-10-17T10:57:03;23.00;99.90
42743;DHT22;28397;44.552;-0.848;2022-10-17T11:02:01;22.90;99.90
42743;DHT22;28397;44.552;-0.848;2022-10-17T11:07:03;23.50;99.90
42743;DHT22;28397;44.552;-0.848;2022-10-17T11:12:29;23.10;99.90
42743;DHT22;28397;44.552;-0.848;2022-10-17T11:23:16;23.70;99.90
42743;DHT22;28397;44.552;-0.848;2022-10-17T11:25:45;24.60;99.90
42743;DHT22;28397;44.552;-0.848;2022-10-17T11:28:17;24.80;99.90
42743;DHT22;28397;44.552;-0.848;2022-10-17T11:31:04;24.50;99.90
42743;DHT22;28397;44.552;-0.848;2022-10-17T11:35:58;24.60;99.90
42743;DHT22;28397;44.552;-0.848;2022-10-17T11:41:01;24.00;99.90
42743;DHT22;28397;44.552;-0.848;2022-10-17T11:43:45;24.50;99.90
42743;DHT22;28397;44.552;-0.848;2022-10-17T11:46:17;25.10;99.90
42743;DHT22;28397;44.552;-0.848;2022-10-17T11:48:54;24.70;99.90
42743;DHT22;28397;44.552;-0.848;2022-10-17T11:51:20;25.20;99.90
42743;DHT22;28397;44.552;-0.848;2022-10-17T11:54:03;25.30;99.90
42743;DHT22;28397;44.552;-0.848;2022-10-17T11:56:42;25.20;99.90
42743;DHT22;28397;44.552;-0.848;2022-10-17T12:11:49;25.70;99.90
42743;DHT22;28397;44.552;-0.848;2022-10-17T12:17:03;25.60;99.90
42743;DHT22;28397;44.552;-0.848;2022-10-17T12:19:32;25.50;99.90
42743;DHT22;28397;44.552;-0.848;2022-10-17T12:22:00;25.10;99.90
42743;DHT22;28397;44.552;-0.848;2022-10-17T12:24:30;25.00;99.90
42743;DHT22;28397;44.552;-0.848;2022-10-17T12:26:57;25.30;99.90
42743;DHT22;28397;44.552;-0.848;2022-10-17T12:29:25;25.40;99.90
42743;DHT22;28397;44.552;-0.848;2022-10-17T12:31:52;25.50;99.90
42743;DHT22;28397;44.552;-0.848;2022-10-17T12:34:18;25.70;99.90
42743;DHT22;28397;44.552;-0.848;2022-10-17T12:36:45;25.90;99.90
42743;DHT22;28397;44.552;-0.848;2022-10-17T12:44:49;25.50;99.90
42743;DHT22;28397;44.552;-0.848;2022-10-17T12:54:28;25.10;99.90
42743;DHT22;28397;44.552;-0.848;2022-10-17T12:56:55;25.30;99.90
42743;DHT22;28397;44.552;-0.848;2022-10-17T12:59:26;25.30;99.90
42743;DHT22;28397;44.552;-0.848;2022-10-17T13:01:53;25.20;99.90
42743;DHT22;28397;44.552;-0.848;2022-10-17T13:04:19;25.30;99.90
42743;DHT22;28397;44.552;-0.848;2022-10-17T13:06:46;25.40;99.90
42743;DHT22;28397;44.552;-0.848;2022-10-17T13:09:29;25.50;99.90
42743;DHT22;28397;44.552;-0.848;2022-10-17T13:11:56;25.70;99.90
42743;DHT22;28397;44.552;-0.848;2022-10-17T13:14:23;25.80;99.90
42743;DHT22;28397;44.552;-0.848;2022-10-17T13:16:59;25.70;99.90
42743;DHT22;28397;44.552;-0.848;2022-10-17T13:19:26;25.80;99.90
42743;DHT22;28397;44.552;-0.848;2022-10-17T13:24:27;25.60;99.90
42743;DHT22;28397;44.552;-0.848;2022-10-17T13:26:53;25.40;99.90
42743;DHT22;28397;44.552;-0.848;2022-10-17T13:29:19;25.50;99.90
42743;DHT22;28397;44.552;-0.848;2022-10-17T13:31:50;25.60;99.90
42743;DHT22;28397;44.552;-0.848;2022-10-17T13:34:20;25.60;99.90
42743;DHT22;28397;44.552;-0.848;2022-10-17T13:36:47;25.60;99.90
42743;DHT22;28397;44.552;-0.848;2022-10-17T13:39:13;25.60;99.90
42743;DHT22;28397;44.552;-0.848;2022-10-17T13:41:40;25.60;99.90
42743;DHT22;28397;44.552;-0.848;2022-10-17T13:44:15;25.60;99.90
42743;DHT22;28397;44.552;-0.848;2022-10-17T13:46:42;25.50;99.90
42743;DHT22;28397;44.552;-0.848;2022-10-17T13:49:09;25.60;99.90
42743;DHT22;28397;44.552;-0.848;2022-10-17T13:51:35;25.60;99.90
42743;DHT22;28397;44.552;-0.848;2022-10-17T13:54:02;25.60;99.90
42743;DHT22;28397;44.552;-0.848;2022-10-17T13:56:41;25.70;99.90
42743;DHT22;28397;44.552;-0.848;2022-10-17T13:59:13;25.80;99.90
42743;DHT22;28397;44.552;-0.848;2022-10-17T14:01:43;25.90;99.90
42743;DHT22;28397;44.552;-0.848;2022-10-17T14:04:08;25.80;99.90
42743;DHT22;28397;44.552;-0.848;2022-10-17T14:06:36;25.80;99.90
42743;DHT22;28397;44.552;-0.848;2022-10-17T14:09:06;25.40;99.90
42743;DHT22;28397;44.552;-0.848;2022-10-17T14:11:41;25.60;99.90
42743;DHT22;28397;44.552;-0.848;2022-10-17T14:14:18;25.40;99.90
42743;DHT22;28397;44.552;-0.848;2022-10-17T14:16:44;25.30;99.90
42743;DHT22;28397;44.552;-0.848;2022-10-17T14:19:26;25.20;99.90
42743;DHT22;28397;44.552;-0.848;2022-10-17T14:21:53;25.20;99.90
42743;DHT22;28397;44.552;-0.848;2022-10-17T14:26:54;25.50;99.90
42743;DHT22;28397;44.552;-0.848;2022-10-17T14:31:58;25.50;99.90
42743;DHT22;28397;44.552;-0.848;2022-10-17T14:34:27;25.50;99.90
42743;DHT22;28397;44.552;-0.848;2022-10-17T14:36:53;25.50;99.90
42743;DHT22;28397;44.552;-0.848;2022-10-17T14:39:21;25.50;99.90
42743;DHT22;28397;44.552;-0.848;2022-10-17T14:41:47;25.40;99.90
42743;DHT22;28397;44.552;-0.848;2022-10-17T14:44:23;25.40;99.90
42743;DHT22;28397;44.552;-0.848;2022-10-17T14:46:51;25.40;99.90
42743;DHT22;28397;44.552;-0.848;2022-10-17T14:49:37;25.30;99.90
42743;DHT22;28397;44.552;-0.848;2022-10-17T14:54:41;25.50;99.90
42743;DHT22;28397;44.552;-0.848;2022-10-17T14:57:16;25.40;99.90
42743;DHT22;28397;44.552;-0.848;2022-10-17T14:59:42;25.50;99.90
42743;DHT22;28397;44.552;-0.848;2022-10-17T15:02:08;25.50;99.90
42743;DHT22;28397;44.552;-0.848;2022-10-17T15:04:33;25.30;99.90
42743;DHT22;28397;44.552;-0.848;2022-10-17T15:06:59;25.30;99.90
42743;DHT22;28397;44.552;-0.848;2022-10-17T15:09:24;25.30;99.90
42743;DHT22;28397;44.552;-0.848;2022-10-17T15:12:03;25.30;99.90
42743;DHT22;28397;44.552;-0.848;2022-10-17T15:14:31;25.30;99.90
42743;DHT22;28397;44.552;-0.848;2022-10-17T15:16:56;25.20;99.90
42743;DHT22;28397;44.552;-0.848;2022-10-17T15:19:22;25.30;99.90
42743;DHT22;28397;44.552;-0.848;2022-10-17T15:21:47;25.40;99.90
42743;DHT22;28397;44.552;-0.848;2022-10-17T15:24:13;25.40;99.90
42743;DHT22;28397;44.552;-0.848;2022-10-17T15:26:40;25.40;99.90
42743;DHT22;28397;44.552;-0.848;2022-10-17T15:29:05;25.30;99.90
42743;DHT22;28397;44.552;-0.848;2022-10-17T15:31:31;25.30;99.90
42743;DHT22;28397;44.552;-0.848;2022-10-17T15:33:57;25.40;99.90
42743;DHT22;28397;44.552;-0.848;2022-10-17T15:36:29;25.30;99.90
42743;DHT22;28397;44.552;-0.848;2022-10-17T15:38:59;25.30;99.90
42743;DHT22;28397;44.552;-0.848;2022-10-17T15:41:25;25.30;99.90
42743;DHT22;28397;44.552;-0.848;2022-10-17T15:43:51;25.10;99.90
42743;DHT22;28397;44.552;-0.848;2022-10-17T15:46:21;25.00;99.90
42743;DHT22;28397;44.552;-0.848;2022-10-17T15:48:48;24.90;99.90
42743;DHT22;28397;44.552;-0.848;2022-10-17T15:51:14;24.80;99.90
42743;DHT22;28397;44.552;-0.848;2022-10-17T15:53:39;24.70;99.90
42743;DHT22;28397;44.552;-0.848;2022-10-17T15:56:05;24.70;99.90
42743;DHT22;28397;44.552;-0.848;2022-10-17T15:58:34;24.60;99.90
42743;DHT22;28397;44.552;-0.848;2022-10-17T16:01:00;24.70;99.90
42743;DHT22;28397;44.552;-0.848;2022-10-17T16:03:26;24.70;99.90
42743;DHT22;28397;44.552;-0.848;2022-10-17T16:05:52;24.70;99.90
42743;DHT22;28397;44.552;-0.848;2022-10-17T16:08:18;24.70;99.90
42743;DHT22;28397;44.552;-0.848;2022-10-17T16:10:43;24.80;99.90
42743;DHT22;28397;44.552;-0.848;2022-10-17T16:13:18;24.80;99.90
42743;DHT22;28397;44.552;-0.848;2022-10-17T16:15:45;24.80;99.90
42743;DHT22;28397;44.552;-0.848;2022-10-17T16:18:11;24.80;99.90
42743;DHT22;28397;44.552;-0.848;2022-10-17T16:20:37;24.70;99.90
42743;DHT22;28397;44.552;-0.848;2022-10-17T16:23:03;24.70;99.90
42743;DHT22;28397;44.552;-0.848;2022-10-17T16:25:29;24.60;99.90
42743;DHT22;28397;44.552;-0.848;2022-10-17T16:27:56;24.60;99.90
42743;DHT22;28397;44.552;-0.848;2022-10-17T16:30:22;24.40;99.90
42743;DHT22;28397;44.552;-0.848;2022-10-17T16:32:48;24.20;99.90
42743;DHT22;28397;44.552;-0.848;2022-10-17T16:35:19;24.20;99.90
42743;DHT22;28397;44.552;-0.848;2022-10-17T16:37:45;24.30;99.90
42743;DHT22;28397;44.552;-0.848;2022-10-17T16:40:12;24.20;99.90
42743;DHT22;28397;44.552;-0.848;2022-10-17T16:42:37;24.10;99.90
42743;DHT22;28397;44.552;-0.848;2022-10-17T16:45:03;24.10;99.90
42743;DHT22;28397;44.552;-0.848;2022-10-17T16:47:29;24.20;99.90
42743;DHT22;28397;44.552;-0.848;2022-10-17T16:49:54;24.20;99.90
42743;DHT22;28397;44.552;-0.848;2022-10-17T16:52:20;23.90;99.90
42743;DHT22;28397;44.552;-0.848;2022-10-17T16:54:45;23.80;99.90
42743;DHT22;28397;44.552;-0.848;2022-10-17T16:57:11;23.90;99.90
42743;DHT22;28397;44.552;-0.848;2022-10-17T16:59:37;23.90;99.90
42743;DHT22;28397;44.552;-0.848;2022-10-17T17:02:02;23.80;99.90
42743;DHT22;28397;44.552;-0.848;2022-10-17T17:04:28;23.60;99.90
42743;DHT22;28397;44.552;-0.848;2022-10-17T17:06:53;23.50;99.90
42743;DHT22;28397;44.552;-0.848;2022-10-17T17:09:19;23.30;99.90
42743;DHT22;28397;44.552;-0.848;2022-10-17T17:11:45;23.30;99.90
42743;DHT22;28397;44.552;-0.848;2022-10-17T17:14:10;23.20;99.90
42743;DHT22;28397;44.552;-0.848;2022-10-17T17:16:36;23.10;99.90